createdAt,value
2018-10-16T00:00:23.180Z,9.67
2018-10-16T00:02:54.377Z,10.73
2018-10-16T00:05:25.406Z,10.33
2018-10-16T00:07:55.843Z,10.63
2018-10-16T00:10:31.039Z,10.37
2018-10-16T00:13:06.443Z,10.47
2018-10-16T00:15:37.805Z,10.40
2018-10-16T00:18:10.425Z,10.10
2018-10-16T00:20:41.403Z,9.57
2018-10-16T00:23:12.417Z,10.03
2018-10-16T00:25:42.845Z,10.00
2018-10-16T00:28:13.101Z,9.50
2018-10-16T00:30:47.175Z,10.37
2018-10-16T00:33:18.822Z,9.53
2018-10-16T00:35:49.447Z,9.67
2018-10-16T00:38:22.679Z,10.73
2018-10-16T00:40:53.155Z,9.93
2018-10-16T00:43:26.148Z,9.77
2018-10-16T00:46:00.289Z,9.37
2018-10-16T00:48:32.729Z,9.83
2018-10-16T00:51:03.519Z,9.47
2018-10-16T00:53:35.446Z,9.93
2018-10-16T00:56:10.370Z,10.07
2018-10-16T00:58:45.524Z,10.40
2018-10-16T01:01:20.284Z,9.93
2018-10-16T01:03:51.098Z,10.23
2018-10-16T01:06:25.121Z,9.43
2018-10-16T01:08:59.889Z,9.80
2018-10-16T01:11:34.705Z,10.10
2018-10-16T01:14:04.925Z,10.27
2018-10-16T01:16:39.936Z,10.20
2018-10-16T01:19:10.794Z,10.00
2018-10-16T01:21:51.722Z,10.30
2018-10-16T01:24:23.422Z,9.70
2018-10-16T01:26:53.515Z,10.13
2018-10-16T01:29:23.607Z,9.80
2018-10-16T01:31:53.854Z,10.17
2018-10-16T01:34:27.828Z,10.10
2018-10-16T01:36:59.864Z,10.07
2018-10-16T01:39:30.458Z,10.00
2018-10-16T01:42:01.212Z,10.10
2018-10-16T01:44:33.270Z,9.70
2018-10-16T01:47:04.701Z,10.47
2018-10-16T01:49:34.738Z,9.83
2018-10-16T01:52:07.334Z,9.30
2018-10-16T01:54:39.680Z,10.00
2018-10-16T01:57:10.996Z,9.63
2018-10-16T01:59:42.776Z,9.50
2018-10-16T02:02:13.630Z,9.93
2018-10-16T02:04:44.388Z,10.10
2018-10-16T02:07:15.858Z,10.37
2018-10-16T02:09:47.004Z,10.30
2018-10-16T02:12:19.666Z,9.27
2018-10-16T02:14:50.500Z,9.97
2018-10-16T02:17:21.728Z,9.63
2018-10-16T02:19:52.637Z,10.00
2018-10-16T02:22:24.194Z,10.23
2018-10-16T02:24:55.570Z,10.10
2018-10-16T02:27:26.498Z,10.03
2018-10-16T02:29:57.378Z,10.47
2018-10-16T02:32:29.605Z,10.57
2018-10-16T02:35:00.038Z,10.00
2018-10-16T02:37:31.085Z,10.10
2018-10-16T02:40:01.486Z,9.90
2018-10-16T02:42:34.223Z,10.13
2018-10-16T02:45:04.222Z,10.17
2018-10-16T02:47:35.866Z,10.27
2018-10-16T02:50:07.923Z,10.43
2018-10-16T02:52:39.454Z,9.43
2018-10-16T02:55:12.516Z,9.43
2018-10-16T02:57:43.994Z,9.70
2018-10-16T03:00:15.802Z,9.87
2018-10-16T03:02:46.881Z,9.87
2018-10-16T03:05:18.469Z,9.73
2018-10-16T03:07:49.966Z,9.67
2018-10-16T03:10:21.255Z,10.63
2018-10-16T03:12:51.854Z,10.43
2018-10-16T03:15:23.781Z,9.90
2018-10-16T03:17:55.807Z,10.03
2018-10-16T03:20:26.543Z,10.07
2018-10-16T03:22:57.679Z,10.17
2018-10-16T03:25:29.725Z,9.43
2018-10-16T03:28:00.086Z,9.77
2018-10-16T03:30:31.709Z,9.57
2018-10-16T03:33:02.393Z,10.27
2018-10-16T03:35:32.524Z,9.90
2018-10-16T03:38:07.701Z,10.23
2018-10-16T03:40:46.425Z,9.83
2018-10-16T03:43:16.787Z,9.73
2018-10-16T03:45:48.315Z,10.00
2018-10-16T03:48:19.789Z,10.00
2018-10-16T03:50:50.762Z,9.90
2018-10-16T03:53:21.202Z,10.00
2018-10-16T03:55:51.672Z,10.30
2018-10-16T04:01:02.793Z,10.23
2018-10-16T04:03:33.383Z,10.23
2018-10-16T04:06:04.091Z,10.07
2018-10-16T04:08:34.709Z,10.03
2018-10-16T04:11:04.576Z,10.27
2018-10-16T04:13:38.018Z,10.07
2018-10-16T04:16:09.618Z,10.10
2018-10-16T04:18:39.872Z,10.73
2018-10-16T04:21:12.151Z,10.23
2018-10-16T04:23:43.568Z,10.03
2018-10-16T04:26:17.840Z,10.10
2018-10-16T04:28:48.098Z,9.73
2018-10-16T04:31:18.246Z,10.63
2018-10-16T04:33:49.166Z,9.93
2018-10-16T04:36:20.675Z,10.33
2018-10-16T04:38:52.453Z,10.33
2018-10-16T04:41:24.232Z,10.60
2018-10-16T04:43:55.640Z,10.73
2018-10-16T04:46:27.364Z,10.13
2018-10-16T04:49:06.848Z,10.23
2018-10-16T04:51:37.976Z,10.43
2018-10-16T04:54:08.694Z,10.27
2018-10-16T04:56:46.625Z,10.13
2018-10-16T04:59:18.200Z,10.03
2018-10-16T05:01:50.603Z,10.30
2018-10-16T05:04:21.573Z,9.77
2018-10-16T05:06:51.674Z,10.77
2018-10-16T05:09:22.000Z,9.67
2018-10-16T05:11:54.465Z,10.40
2018-10-16T05:14:25.006Z,10.50
2018-10-16T05:16:58.983Z,10.03
2018-10-16T05:19:29.374Z,10.87
2018-10-16T05:22:00.969Z,10.70
2018-10-16T05:24:31.309Z,11.30
2018-10-16T05:27:02.739Z,10.73
2018-10-16T05:29:33.062Z,10.60
2018-10-16T05:32:04.067Z,11.23
2018-10-16T05:34:37.892Z,10.73
2018-10-16T05:37:08.169Z,10.07
2018-10-16T05:39:39.332Z,10.57
2018-10-16T05:42:15.026Z,10.87
2018-10-16T05:44:46.024Z,10.67
2018-10-16T05:47:16.257Z,10.27
2018-10-16T05:49:48.743Z,10.23
2018-10-16T05:52:37.097Z,10.53
2018-10-16T05:55:13.170Z,10.57
2018-10-16T05:57:43.930Z,11.37
2018-10-16T06:00:26.157Z,12.20
2018-10-16T06:02:57.091Z,11.23
2018-10-16T06:05:27.044Z,11.73
2018-10-16T06:07:58.341Z,11.73
2018-10-16T06:10:34.157Z,10.73
2018-10-16T06:13:04.660Z,11.50
2018-10-16T06:15:34.945Z,10.70
2018-10-16T06:18:06.792Z,11.53
2018-10-16T06:20:39.059Z,11.20
2018-10-16T06:23:12.115Z,11.27
2018-10-16T06:25:43.924Z,11.53
2018-10-16T06:28:23.130Z,11.53
2018-10-16T06:30:54.561Z,11.13
2018-10-16T06:33:28.899Z,11.67
2018-10-16T06:36:01.864Z,11.47
2018-10-16T06:38:33.009Z,11.40
2018-10-16T06:41:04.053Z,11.30
2018-10-16T06:43:35.260Z,11.90
2018-10-16T06:46:05.845Z,10.50
2018-10-16T06:48:37.340Z,10.73
2018-10-16T06:51:09.697Z,11.50
2018-10-16T06:53:41.871Z,10.93
2018-10-16T06:56:11.757Z,11.37
2018-10-16T07:04:16.067Z,11.77
2018-10-16T07:06:51.301Z,11.33
2018-10-16T07:09:30.190Z,12.00
2018-10-16T07:12:02.795Z,12.63
2018-10-16T07:14:33.644Z,11.67
2018-10-16T07:17:04.511Z,11.73
2018-10-16T07:19:37.716Z,11.60
2018-10-16T07:22:11.213Z,11.80
2018-10-16T07:24:42.064Z,11.57
2018-10-16T07:27:14.438Z,12.13
2018-10-16T07:29:45.820Z,12.20
2018-10-16T07:32:18.778Z,11.97
2018-10-16T07:34:50.473Z,11.87
2018-10-16T07:37:23.013Z,11.90
2018-10-16T07:39:55.116Z,11.73
2018-10-16T07:42:25.741Z,11.43
2018-10-16T07:44:56.413Z,11.33
2018-10-16T07:47:27.049Z,11.67
2018-10-16T07:49:57.709Z,11.13
2018-10-16T07:52:28.554Z,11.70
2018-10-16T07:54:59.269Z,12.00
2018-10-16T07:57:29.699Z,10.97
2018-10-16T08:00:00.866Z,11.30
2018-10-16T08:02:33.231Z,11.20
2018-10-16T08:05:04.893Z,12.27
2018-10-16T08:07:35.129Z,11.97
2018-10-16T08:10:05.325Z,11.17
2018-10-16T08:12:36.699Z,12.07
2018-10-16T08:15:10.992Z,11.27
2018-10-16T08:17:42.171Z,11.30
2018-10-16T08:20:12.643Z,11.33
2018-10-16T08:22:43.573Z,11.30
2018-10-16T08:25:14.294Z,11.17
2018-10-16T08:27:45.785Z,12.07
2018-10-16T08:30:16.142Z,11.23
2018-10-16T08:32:47.200Z,11.00
2018-10-16T08:35:17.908Z,10.93
2018-10-16T08:39:57.922Z,11.77
2018-10-16T08:45:08.066Z,11.37
2018-10-16T08:47:48.890Z,11.50
2018-10-16T08:50:30.901Z,11.47
2018-10-16T08:53:06.528Z,11.80
2018-10-16T08:55:38.310Z,11.43
2018-10-16T08:58:09.117Z,12.77
2018-10-16T09:00:39.913Z,11.77
2018-10-16T09:03:10.445Z,11.80
2018-10-16T09:05:51.796Z,12.30
2018-10-16T09:08:37.873Z,11.93
2018-10-16T09:11:25.230Z,12.90
2018-10-16T09:13:58.246Z,12.67
2018-10-16T09:16:29.024Z,12.93
2018-10-16T09:18:59.497Z,11.93
2018-10-16T09:21:30.886Z,12.10
2018-10-16T09:24:01.300Z,12.27
2018-10-16T09:26:31.560Z,11.70
2018-10-16T09:29:02.374Z,12.23
2018-10-16T09:31:32.946Z,12.87
2018-10-16T09:34:03.042Z,13.27
2018-10-16T09:36:42.965Z,13.33
2018-10-16T09:39:24.966Z,11.87
2018-10-16T09:41:56.067Z,12.00
2018-10-16T09:44:27.613Z,12.67
2018-10-16T09:46:59.758Z,12.83
2018-10-16T09:49:31.944Z,12.77
2018-10-16T09:52:03.392Z,12.87
2018-10-16T09:54:33.207Z,12.70
2018-10-16T09:57:04.312Z,12.87
2018-10-16T09:59:37.990Z,12.47
2018-10-16T10:02:09.731Z,12.80
2018-10-16T10:04:41.835Z,11.50
2018-10-16T10:07:12.384Z,12.67
2018-10-16T10:09:42.982Z,12.10
2018-10-16T10:12:14.442Z,12.57
2018-10-16T10:14:46.135Z,12.80
2018-10-16T10:17:17.751Z,12.27
2018-10-16T10:19:49.074Z,11.90
2018-10-16T10:22:21.736Z,11.73
2018-10-16T10:24:52.044Z,12.97
2018-10-16T10:27:23.715Z,12.53
2018-10-16T10:29:54.599Z,11.20
2018-10-16T10:32:25.713Z,11.37
2018-10-16T10:34:57.020Z,13.00
2018-10-16T10:37:27.581Z,11.73
2018-10-16T10:39:58.190Z,12.47
2018-10-16T10:42:29.030Z,10.60
2018-10-16T10:45:00.590Z,12.87
2018-10-16T10:47:31.320Z,10.33
2018-10-16T10:50:01.303Z,11.20
2018-10-16T10:52:32.678Z,11.43
2018-10-16T10:55:03.606Z,11.03
2018-10-16T10:57:34.573Z,10.43
2018-10-16T11:00:06.033Z,10.97
2018-10-16T11:02:37.532Z,10.07
2018-10-16T11:05:11.041Z,9.97
2018-10-16T11:07:42.202Z,9.87
2018-10-16T11:10:15.067Z,11.17
2018-10-16T11:12:47.678Z,10.63
2018-10-16T11:15:22.423Z,10.33
2018-10-16T11:17:54.660Z,10.83
2018-10-16T11:20:27.452Z,11.53
2018-10-16T11:22:59.733Z,10.20
2018-10-16T11:25:30.061Z,10.00
2018-10-16T11:28:01.793Z,10.30
2018-10-16T11:30:35.562Z,9.93
2018-10-16T11:33:06.359Z,10.20
2018-10-16T11:35:36.696Z,10.47
2018-10-16T11:38:08.245Z,10.30
2018-10-16T11:40:42.951Z,10.90
2018-10-16T11:43:13.698Z,10.83
2018-10-16T11:45:44.429Z,10.50
2018-10-16T11:51:36.801Z,10.43
2018-10-16T11:54:10.771Z,10.90
2018-10-16T11:56:44.175Z,10.57
2018-10-16T11:59:15.153Z,10.20
2018-10-16T12:01:49.457Z,10.93
2018-10-16T12:04:21.046Z,10.47
2018-10-16T12:06:51.448Z,10.20
2018-10-16T12:09:21.937Z,9.27
2018-10-16T12:11:53.228Z,10.13
2018-10-16T12:14:24.962Z,9.90
2018-10-16T12:17:04.523Z,10.00
2018-10-16T12:19:40.629Z,10.60
2018-10-16T12:22:10.991Z,9.37
2018-10-16T12:24:41.583Z,9.77
2018-10-16T12:27:12.345Z,9.03
2018-10-16T12:29:45.573Z,9.20
2018-10-16T12:32:22.589Z,9.57
2018-10-16T12:34:55.754Z,9.03
2018-10-16T12:37:26.485Z,9.50
2018-10-16T12:39:57.056Z,10.23
2018-10-16T12:42:31.385Z,11.83
2018-10-16T12:45:02.393Z,10.30
2018-10-16T12:47:32.794Z,10.07
2018-10-16T12:50:03.410Z,9.77
2018-10-16T12:52:34.530Z,11.63
2018-10-16T12:55:04.452Z,10.33
2018-10-16T13:00:11.206Z,10.90
2018-10-16T13:02:44.006Z,10.73
2018-10-16T13:05:18.437Z,9.70
2018-10-16T13:07:51.871Z,9.13
2018-10-16T13:10:27.770Z,9.60
2018-10-16T13:12:59.362Z,8.80
2018-10-16T13:15:31.592Z,10.43
2018-10-16T13:18:02.838Z,11.03
2018-10-16T13:20:33.197Z,10.47
2018-10-16T13:23:03.325Z,12.30
2018-10-16T13:25:34.280Z,11.40
2018-10-16T13:28:07.450Z,10.50
2018-10-16T13:30:38.822Z,11.17
2018-10-16T13:33:09.514Z,10.60
2018-10-16T13:35:40.694Z,10.70
2018-10-16T13:38:12.160Z,10.73
2018-10-16T13:40:44.844Z,10.83
2018-10-16T13:43:15.809Z,10.90
2018-10-16T13:45:47.278Z,11.57
2018-10-16T13:48:17.848Z,9.70
2018-10-16T13:50:48.670Z,9.33
2018-10-16T13:53:19.712Z,9.13
2018-10-16T13:55:51.568Z,9.17
2018-10-16T13:58:26.563Z,10.03
2018-10-16T14:00:57.428Z,9.23
2018-10-16T14:03:28.145Z,9.90
2018-10-16T14:05:59.321Z,9.93
2018-10-16T14:08:29.667Z,10.03
2018-10-16T14:11:00.274Z,10.60
2018-10-16T14:13:30.894Z,10.27
2018-10-16T14:16:01.703Z,13.03
2018-10-16T14:18:32.076Z,11.37
2018-10-16T14:21:01.982Z,12.70
2018-10-16T14:23:34.196Z,13.37
2018-10-16T14:26:19.350Z,14.00
2018-10-16T14:28:58.260Z,11.70
2018-10-16T14:31:36.300Z,11.37
2018-10-16T14:34:09.876Z,11.37
2018-10-16T14:36:40.462Z,11.87
2018-10-16T14:39:13.195Z,11.90
2018-10-16T14:41:45.353Z,12.23
2018-10-16T14:44:16.178Z,10.20
2018-10-16T14:46:47.850Z,10.30
2018-10-16T14:49:19.958Z,10.17
2018-10-16T14:51:51.562Z,11.30
2018-10-16T14:54:22.377Z,11.57
2018-10-16T14:56:52.627Z,11.33
2018-10-16T14:59:24.571Z,11.47
2018-10-16T15:02:01.175Z,10.73
2018-10-16T15:04:32.405Z,10.60
2018-10-16T15:07:02.713Z,10.17
2018-10-16T15:09:33.396Z,9.30
2018-10-16T15:12:09.777Z,9.90
2018-10-16T15:14:41.556Z,9.37
2018-10-16T15:17:13.703Z,9.10
2018-10-16T15:19:44.581Z,9.20
2018-10-16T15:22:16.552Z,9.10
2018-10-16T15:24:46.473Z,9.70
2018-10-16T15:27:18.830Z,8.80
2018-10-16T15:29:49.264Z,9.17
2018-10-16T15:32:20.168Z,8.90
2018-10-16T15:34:50.293Z,8.20
2018-10-16T15:37:22.575Z,8.63
2018-10-16T15:39:54.187Z,9.13
2018-10-16T15:42:24.775Z,8.93
2018-10-16T15:44:55.077Z,8.90
2018-10-16T15:47:26.134Z,10.03
2018-10-16T15:49:57.467Z,9.47
2018-10-16T15:52:28.087Z,8.93
2018-10-16T15:54:58.927Z,8.60
2018-10-16T15:57:29.910Z,8.77
2018-10-16T16:00:02.678Z,8.13
2018-10-16T16:02:34.142Z,8.17
2018-10-16T16:05:04.208Z,7.97
2018-10-16T16:07:34.061Z,8.60
2018-10-16T16:10:04.814Z,7.37
2018-10-16T16:12:34.971Z,9.40
2018-10-16T16:15:05.934Z,9.33
2018-10-16T16:17:35.841Z,10.03
2018-10-16T16:20:07.363Z,9.73
2018-10-16T16:22:38.988Z,10.20
2018-10-16T16:25:10.851Z,10.13
2018-10-16T16:27:41.944Z,8.83
2018-10-16T16:30:14.808Z,9.50
2018-10-16T16:32:47.761Z,9.47
2018-10-16T16:35:19.589Z,10.57
2018-10-16T16:37:52.390Z,10.40
2018-10-16T16:40:23.435Z,10.63
2018-10-16T16:42:55.501Z,11.07
2018-10-16T16:45:26.117Z,8.60
2018-10-16T16:47:59.523Z,9.63
2018-10-16T16:50:30.548Z,9.43
2018-10-16T16:53:01.266Z,10.53
2018-10-16T16:55:31.860Z,11.17
2018-10-16T16:58:05.656Z,11.33
2018-10-16T17:00:40.914Z,10.50
2018-10-16T17:03:13.559Z,10.20
2018-10-16T17:05:45.916Z,10.63
2018-10-16T17:08:17.915Z,9.40
2018-10-16T17:10:48.885Z,9.03
2018-10-16T17:13:21.226Z,9.13
2018-10-16T17:15:52.704Z,9.30
2018-10-16T17:18:25.672Z,9.57
2018-10-16T17:21:01.395Z,9.17
2018-10-16T17:23:32.099Z,9.23
2018-10-16T17:26:12.919Z,10.00
2018-10-16T17:28:44.844Z,13.47
2018-10-16T17:31:22.761Z,11.93
2018-10-16T17:33:53.198Z,10.90
2018-10-16T17:36:23.687Z,11.70
2018-10-16T17:38:55.646Z,11.03
2018-10-16T17:41:26.774Z,11.50
2018-10-16T17:43:58.789Z,11.40
2018-10-16T17:46:38.644Z,10.73
2018-10-16T17:49:09.416Z,9.93
2018-10-16T17:51:40.806Z,10.30
2018-10-16T17:54:11.698Z,9.40
2018-10-16T17:56:42.082Z,9.50
2018-10-16T17:59:15.074Z,9.23
2018-10-16T18:01:51.913Z,11.07
2018-10-16T18:04:28.154Z,10.57
2018-10-16T18:07:04.201Z,10.63
2018-10-16T18:09:35.202Z,11.10
2018-10-16T18:12:08.033Z,11.13
2018-10-16T18:14:40.283Z,10.27
2018-10-16T18:17:15.282Z,10.70
2018-10-16T18:19:45.376Z,11.40
2018-10-16T18:22:16.605Z,10.93
2018-10-16T18:24:46.733Z,11.03
2018-10-16T18:27:16.733Z,10.97
2018-10-16T18:29:49.368Z,9.90
2018-10-16T18:32:20.257Z,10.70
2018-10-16T18:34:51.659Z,10.33
2018-10-16T18:37:25.083Z,9.53
2018-10-16T18:39:56.802Z,9.97
2018-10-16T18:42:27.797Z,9.60
2018-10-16T18:44:58.767Z,9.40
2018-10-16T18:47:30.357Z,9.63
2018-10-16T18:50:01.262Z,10.17
2018-10-16T18:52:31.694Z,10.23
2018-10-16T18:55:03.368Z,10.60
2018-10-16T18:57:34.477Z,9.67
2018-10-16T19:00:07.873Z,9.70
2018-10-16T19:02:38.284Z,9.80
2018-10-16T19:05:15.040Z,9.93
2018-10-16T19:07:49.327Z,10.07
2018-10-16T19:10:34.719Z,9.60
2018-10-16T19:13:05.253Z,9.47
2018-10-16T19:15:36.287Z,10.53
2018-10-16T19:18:08.500Z,12.20
2018-10-16T19:20:40.646Z,10.90
2018-10-16T19:23:15.200Z,11.93
2018-10-16T19:26:05.085Z,11.23
2018-10-16T19:28:37.364Z,10.70
2018-10-16T19:31:08.565Z,9.83
2018-10-16T19:33:39.393Z,10.10
2018-10-16T19:36:10.929Z,10.77
2018-10-16T19:38:48.641Z,9.87
2018-10-16T19:41:19.550Z,11.23
2018-10-16T19:43:50.250Z,9.93
2018-10-16T19:46:21.887Z,10.37
2018-10-16T19:48:52.529Z,9.23
2018-10-16T19:51:23.205Z,9.50
2018-10-16T19:53:54.079Z,9.93
2018-10-16T19:56:25.297Z,10.27
2018-10-16T19:58:57.386Z,10.07
2018-10-16T20:01:29.708Z,9.33
2018-10-16T20:04:07.003Z,9.40
2018-10-16T20:06:37.540Z,9.70
2018-10-16T20:09:10.288Z,10.90
2018-10-16T20:11:41.387Z,10.40
2018-10-16T20:14:12.082Z,11.13
2018-10-16T20:16:42.656Z,11.00
2018-10-16T20:19:21.221Z,10.77
2018-10-16T20:21:53.206Z,11.20
2018-10-16T20:24:26.592Z,11.67
2018-10-16T20:27:00.224Z,11.83
2018-10-16T20:29:36.162Z,11.93
2018-10-16T20:32:06.898Z,11.43
2018-10-16T20:34:40.038Z,11.87
2018-10-16T20:37:16.752Z,12.13
2018-10-16T20:39:47.816Z,11.93
2018-10-16T20:42:19.663Z,12.03
2018-10-16T20:44:52.817Z,13.03
2018-10-16T20:47:27.464Z,13.17
2018-10-16T20:49:59.470Z,13.40
2018-10-16T20:52:31.516Z,13.77
2018-10-16T20:55:06.160Z,14.47
2018-10-16T20:57:37.676Z,13.60
2018-10-16T21:00:08.670Z,14.43
2018-10-16T21:02:41.635Z,14.30
2018-10-16T21:05:13.425Z,13.33
2018-10-16T21:07:43.219Z,12.80
2018-10-16T21:10:16.101Z,12.50
2018-10-16T21:12:47.385Z,11.60
2018-10-16T21:15:21.384Z,12.17
2018-10-16T21:17:53.745Z,11.80
2018-10-16T21:20:24.473Z,12.30
2018-10-16T21:22:54.469Z,11.50
2018-10-16T21:25:24.676Z,10.80
2018-10-16T21:27:55.324Z,10.97
2018-10-16T21:30:26.040Z,11.87
2018-10-16T21:32:57.369Z,11.50
2018-10-16T21:35:28.161Z,11.70
2018-10-16T21:38:00.273Z,11.50
2018-10-16T21:40:30.539Z,10.93
2018-10-16T21:43:01.237Z,11.93
2018-10-16T21:45:31.562Z,11.70
2018-10-16T21:48:01.756Z,11.53
2018-10-16T21:50:31.991Z,11.77
2018-10-16T21:53:02.322Z,11.23
2018-10-16T21:55:44.707Z,11.97
2018-10-16T21:58:15.544Z,11.90
2018-10-16T22:00:51.605Z,11.73
2018-10-16T22:03:22.165Z,11.70
2018-10-16T22:05:52.611Z,11.63
2018-10-16T22:08:24.474Z,12.67
2018-10-16T22:10:54.941Z,12.13
2018-10-16T22:13:26.171Z,12.07
2018-10-16T22:15:58.136Z,11.83
2018-10-16T22:18:28.308Z,11.33
2018-10-16T22:20:58.960Z,12.33
2018-10-16T22:23:29.497Z,12.43
2018-10-16T22:26:00.380Z,11.57
2018-10-16T22:28:32.047Z,12.23
2018-10-16T22:31:02.113Z,12.73
2018-10-16T22:33:32.250Z,12.77
2018-10-16T22:36:03.582Z,12.00
2018-10-16T22:38:35.563Z,12.87
2018-10-16T22:41:09.291Z,11.87
2018-10-16T22:43:39.099Z,11.97
2018-10-16T22:46:09.813Z,11.87
2018-10-16T22:48:40.880Z,12.80
2018-10-16T22:51:12.147Z,12.17
2018-10-16T22:53:46.741Z,12.07
2018-10-16T22:56:20.471Z,11.70
2018-10-16T22:58:52.340Z,12.30
2018-10-16T23:01:23.076Z,12.13
2018-10-16T23:03:53.455Z,12.10
2018-10-16T23:06:24.540Z,12.03
2018-10-16T23:08:55.112Z,12.50
2018-10-16T23:11:26.021Z,12.23
2018-10-16T23:13:57.427Z,12.03
2018-10-16T23:16:28.740Z,12.53
2018-10-16T23:19:01.769Z,12.47
2018-10-16T23:21:31.904Z,12.03
2018-10-16T23:24:02.676Z,12.57
2018-10-16T23:26:34.684Z,12.33
2018-10-16T23:29:05.094Z,11.93
2018-10-16T23:31:35.090Z,16.03
2018-10-16T23:34:10.094Z,12.40
2018-10-16T23:36:42.452Z,12.77
2018-10-16T23:39:14.813Z,13.10
2018-10-16T23:41:46.089Z,12.37
2018-10-16T23:44:20.411Z,12.47
2018-10-16T23:46:51.053Z,13.03
2018-10-16T23:49:21.064Z,12.60
2018-10-16T23:51:52.418Z,11.77
2018-10-16T23:54:23.328Z,13.10
2018-10-16T23:56:55.443Z,12.37
2018-10-16T23:59:27.567Z,11.63
